sensor_id;sensor_type;location;lat;lon;timestamp;P1;durP1;ratioP1;P2;durP2;ratioP2
66680;SDS011;53575;51.366;12.350;2022-10-31T00:00:17;15.40;;;8.60;;
66680;SDS011;53575;51.366;12.350;2022-10-31T00:02:42;17.58;;;6.88;;
66680;SDS011;53575;51.366;12.350;2022-10-31T00:05:08;14.40;;;7.15;;
66680;SDS011;53575;51.366;12.350;2022-10-31T00:07:33;15.48;;;7.80;;
66680;SDS011;53575;51.366;12.350;2022-10-31T00:09:59;20.25;;;8.45;;
66680;SDS011;53575;51.366;12.350;2022-10-31T00:12:25;15.88;;;9.15;;
66680;SDS011;53575;51.366;12.350;2022-10-31T00:14:51;15.68;;;7.20;;
66680;SDS011;53575;51.366;12.350;2022-10-31T00:17:17;15.50;;;6.97;;
66680;SDS011;53575;51.366;12.350;2022-10-31T00:19:42;14.40;;;7.55;;
66680;SDS011;53575;51.366;12.350;2022-10-31T00:22:08;13.90;;;7.65;;
66680;SDS011;53575;51.366;12.350;2022-10-31T00:24:33;16.17;;;8.10;;
66680;SDS011;53575;51.366;12.350;2022-10-31T00:26:58;13.70;;;7.70;;
66680;SDS011;53575;51.366;12.350;2022-10-31T00:29:24;16.33;;;7.25;;
66680;SDS011;53575;51.366;12.350;2022-10-31T00:31:49;17.90;;;10.32;;
66680;SDS011;53575;51.366;12.350;2022-10-31T00:34:15;13.23;;;7.20;;
66680;SDS011;53575;51.366;12.350;2022-10-31T00:36:40;17.45;;;8.57;;
66680;SDS011;53575;51.366;12.350;2022-10-31T00:39:05;17.77;;;8.80;;
66680;SDS011;53575;51.366;12.350;2022-10-31T00:41:31;16.75;;;7.18;;
66680;SDS011;53575;51.366;12.350;2022-10-31T00:43:56;14.05;;;6.80;;
66680;SDS011;53575;51.366;12.350;2022-10-31T00:46:22;10.90;;;6.47;;
66680;SDS011;53575;51.366;12.350;2022-10-31T00:48:47;14.10;;;8.13;;
66680;SDS011;53575;51.366;12.350;2022-10-31T00:51:13;14.07;;;7.22;;
66680;SDS011;53575;51.366;12.350;2022-10-31T00:53:38;14.93;;;7.50;;
66680;SDS011;53575;51.366;12.350;2022-10-31T00:56:04;14.02;;;8.25;;
66680;SDS011;53575;51.366;12.350;2022-10-31T00:58:29;13.38;;;7.82;;
66680;SDS011;53575;51.366;12.350;2022-10-31T01:00:55;15.73;;;7.65;;
66680;SDS011;53575;51.366;12.350;2022-10-31T01:03:24;13.77;;;7.60;;
66680;SDS011;53575;51.366;12.350;2022-10-31T01:08:28;14.25;;;8.07;;
66680;SDS011;53575;51.366;12.350;2022-10-31T01:11:00;14.25;;;8.43;;
66680;SDS011;53575;51.366;12.350;2022-10-31T01:13:34;14.90;;;8.40;;
66680;SDS011;53575;51.366;12.350;2022-10-31T01:16:00;14.30;;;7.55;;
66680;SDS011;53575;51.366;12.350;2022-10-31T01:18:26;13.13;;;8.27;;
66680;SDS011;53575;51.366;12.350;2022-10-31T01:20:59;18.85;;;8.88;;
66680;SDS011;53575;51.366;12.350;2022-10-31T01:23:32;13.63;;;7.40;;
66680;SDS011;53575;51.366;12.350;2022-10-31T01:26:06;14.90;;;7.97;;
66680;SDS011;53575;51.366;12.350;2022-10-31T01:28:32;16.48;;;8.55;;
66680;SDS011;53575;51.366;12.350;2022-10-31T01:31:02;15.02;;;8.15;;
66680;SDS011;53575;51.366;12.350;2022-10-31T01:33:29;14.23;;;8.77;;
66680;SDS011;53575;51.366;12.350;2022-10-31T01:35:54;14.02;;;8.10;;
66680;SDS011;53575;51.366;12.350;2022-10-31T01:38:20;20.63;;;7.93;;
66680;SDS011;53575;51.366;12.350;2022-10-31T01:40:45;15.88;;;7.35;;
66680;SDS011;53575;51.366;12.350;2022-10-31T01:43:14;14.98;;;8.25;;
66680;SDS011;53575;51.366;12.350;2022-10-31T01:45:43;14.98;;;7.93;;
66680;SDS011;53575;51.366;12.350;2022-10-31T01:48:15;15.52;;;8.35;;
66680;SDS011;53575;51.366;12.350;2022-10-31T01:50:44;15.98;;;8.50;;
66680;SDS011;53575;51.366;12.350;2022-10-31T01:53:13;14.27;;;8.30;;
66680;SDS011;53575;51.366;12.350;2022-10-31T01:55:41;16.38;;;8.00;;
66680;SDS011;53575;51.366;12.350;2022-10-31T01:58:13;12.50;;;8.07;;
66680;SDS011;53575;51.366;12.350;2022-10-31T02:00:43;15.25;;;8.02;;
66680;SDS011;53575;51.366;12.350;2022-10-31T02:03:11;18.80;;;8.88;;
66680;SDS011;53575;51.366;12.350;2022-10-31T02:05:37;17.38;;;8.48;;
66680;SDS011;53575;51.366;12.350;2022-10-31T02:10:35;14.15;;;7.57;;
66680;SDS011;53575;51.366;12.350;2022-10-31T02:13:02;12.98;;;7.50;;
66680;SDS011;53575;51.366;12.350;2022-10-31T02:15:30;13.32;;;8.20;;
66680;SDS011;53575;51.366;12.350;2022-10-31T02:17:57;18.00;;;8.60;;
66680;SDS011;53575;51.366;12.350;2022-10-31T02:20:24;15.23;;;7.07;;
66680;SDS011;53575;51.366;12.350;2022-10-31T02:31:45;14.48;;;7.85;;
66680;SDS011;53575;51.366;12.350;2022-10-31T02:34:15;13.88;;;8.35;;
66680;SDS011;53575;51.366;12.350;2022-10-31T02:37:02;18.58;;;8.63;;
66680;SDS011;53575;51.366;12.350;2022-10-31T02:39:48;14.38;;;7.55;;
66680;SDS011;53575;51.366;12.350;2022-10-31T02:42:40;18.38;;;8.45;;
66680;SDS011;53575;51.366;12.350;2022-10-31T02:48:04;14.13;;;7.65;;
66680;SDS011;53575;51.366;12.350;2022-10-31T02:50:37;15.20;;;7.93;;
66680;SDS011;53575;51.366;12.350;2022-10-31T02:53:06;15.23;;;9.30;;
66680;SDS011;53575;51.366;12.350;2022-10-31T02:58:01;16.80;;;8.30;;
66680;SDS011;53575;51.366;12.350;2022-10-31T03:00:31;17.90;;;8.38;;
66680;SDS011;53575;51.366;12.350;2022-10-31T03:03:24;16.50;;;8.15;;
66680;SDS011;53575;51.366;12.350;2022-10-31T03:11:12;14.18;;;8.27;;
66680;SDS011;53575;51.366;12.350;2022-10-31T03:13:47;15.57;;;8.05;;
66680;SDS011;53575;51.366;12.350;2022-10-31T03:19:21;14.82;;;8.38;;
66680;SDS011;53575;51.366;12.350;2022-10-31T03:24:27;14.23;;;8.05;;
66680;SDS011;53575;51.366;12.350;2022-10-31T03:26:56;14.00;;;8.18;;
66680;SDS011;53575;51.366;12.350;2022-10-31T03:29:24;16.83;;;8.88;;
66680;SDS011;53575;51.366;12.350;2022-10-31T03:31:55;14.27;;;8.05;;
66680;SDS011;53575;51.366;12.350;2022-10-31T03:34:24;18.65;;;8.20;;
66680;SDS011;53575;51.366;12.350;2022-10-31T03:36:52;17.50;;;10.00;;
66680;SDS011;53575;51.366;12.350;2022-10-31T03:39:21;11.70;;;8.18;;
66680;SDS011;53575;51.366;12.350;2022-10-31T03:41:55;17.83;;;8.80;;
66680;SDS011;53575;51.366;12.350;2022-10-31T03:44:30;14.75;;;8.55;;
66680;SDS011;53575;51.366;12.350;2022-10-31T03:46:58;19.38;;;8.63;;
66680;SDS011;53575;51.366;12.350;2022-10-31T03:49:25;13.48;;;8.10;;
66680;SDS011;53575;51.366;12.350;2022-10-31T03:51:54;15.65;;;8.57;;
66680;SDS011;53575;51.366;12.350;2022-10-31T03:56:57;15.40;;;8.15;;
66680;SDS011;53575;51.366;12.350;2022-10-31T03:59:35;13.85;;;8.52;;
66680;SDS011;53575;51.366;12.350;2022-10-31T04:02:09;16.10;;;9.57;;
66680;SDS011;53575;51.366;12.350;2022-10-31T04:04:38;16.98;;;8.70;;
66680;SDS011;53575;51.366;12.350;2022-10-31T04:07:04;15.68;;;9.07;;
66680;SDS011;53575;51.366;12.350;2022-10-31T04:09:32;17.95;;;9.38;;
66680;SDS011;53575;51.366;12.350;2022-10-31T04:12:00;13.27;;;8.27;;
66680;SDS011;53575;51.366;12.350;2022-10-31T04:14:30;19.30;;;8.23;;
66680;SDS011;53575;51.366;12.350;2022-10-31T04:16:57;15.10;;;8.65;;
66680;SDS011;53575;51.366;12.350;2022-10-31T04:19:23;18.50;;;9.93;;
66680;SDS011;53575;51.366;12.350;2022-10-31T04:21:49;13.25;;;8.82;;
66680;SDS011;53575;51.366;12.350;2022-10-31T04:24:14;15.73;;;9.45;;
66680;SDS011;53575;51.366;12.350;2022-10-31T04:26:39;15.20;;;8.52;;
66680;SDS011;53575;51.366;12.350;2022-10-31T04:29:05;15.52;;;8.38;;
66680;SDS011;53575;51.366;12.350;2022-10-31T04:31:30;16.23;;;8.35;;
66680;SDS011;53575;51.366;12.350;2022-10-31T04:33:55;16.30;;;8.80;;
66680;SDS011;53575;51.366;12.350;2022-10-31T04:36:21;14.38;;;8.73;;
66680;SDS011;53575;51.366;12.350;2022-10-31T04:38:46;14.05;;;8.70;;
66680;SDS011;53575;51.366;12.350;2022-10-31T04:41:11;16.10;;;9.90;;
66680;SDS011;53575;51.366;12.350;2022-10-31T04:43:37;19.40;;;9.27;;
66680;SDS011;53575;51.366;12.350;2022-10-31T04:46:02;15.57;;;9.02;;
66680;SDS011;53575;51.366;12.350;2022-10-31T04:48:28;15.35;;;8.82;;
66680;SDS011;53575;51.366;12.350;2022-10-31T04:50:58;12.95;;;8.25;;
66680;SDS011;53575;51.366;12.350;2022-10-31T04:53:24;16.90;;;8.88;;
66680;SDS011;53575;51.366;12.350;2022-10-31T04:55:49;16.35;;;8.82;;
66680;SDS011;53575;51.366;12.350;2022-10-31T04:58:15;12.95;;;8.98;;
66680;SDS011;53575;51.366;12.350;2022-10-31T05:00:40;14.20;;;8.65;;
66680;SDS011;53575;51.366;12.350;2022-10-31T05:03:05;15.52;;;9.18;;
66680;SDS011;53575;51.366;12.350;2022-10-31T05:05:31;17.48;;;8.93;;
66680;SDS011;53575;51.366;12.350;2022-10-31T05:07:56;15.57;;;9.50;;
66680;SDS011;53575;51.366;12.350;2022-10-31T05:10:23;14.98;;;9.10;;
66680;SDS011;53575;51.366;12.350;2022-10-31T05:12:52;15.82;;;9.63;;
66680;SDS011;53575;51.366;12.350;2022-10-31T05:15:19;15.75;;;8.35;;
66680;SDS011;53575;51.366;12.350;2022-10-31T05:17:46;17.10;;;9.20;;
66680;SDS011;53575;51.366;12.350;2022-10-31T05:20:12;12.98;;;9.10;;
66680;SDS011;53575;51.366;12.350;2022-10-31T05:22:42;14.68;;;8.52;;
66680;SDS011;53575;51.366;12.350;2022-10-31T05:25:09;15.38;;;8.40;;
66680;SDS011;53575;51.366;12.350;2022-10-31T05:27:37;14.75;;;8.18;;
66680;SDS011;53575;51.366;12.350;2022-10-31T05:30:04;16.55;;;8.48;;
66680;SDS011;53575;51.366;12.350;2022-10-31T05:32:29;15.85;;;7.82;;
66680;SDS011;53575;51.366;12.350;2022-10-31T05:34:55;17.20;;;8.93;;
66680;SDS011;53575;51.366;12.350;2022-10-31T05:37:20;16.40;;;7.88;;
66680;SDS011;53575;51.366;12.350;2022-10-31T05:39:46;12.68;;;7.82;;
66680;SDS011;53575;51.366;12.350;2022-10-31T05:42:11;11.68;;;8.30;;
66680;SDS011;53575;51.366;12.350;2022-10-31T05:44:36;14.48;;;8.45;;
66680;SDS011;53575;51.366;12.350;2022-10-31T05:47:02;18.27;;;9.23;;
66680;SDS011;53575;51.366;12.350;2022-10-31T05:49:27;18.45;;;9.88;;
66680;SDS011;53575;51.366;12.350;2022-10-31T05:51:52;15.55;;;10.32;;
66680;SDS011;53575;51.366;12.350;2022-10-31T05:54:18;13.95;;;9.23;;
66680;SDS011;53575;51.366;12.350;2022-10-31T05:56:43;16.23;;;9.30;;
66680;SDS011;53575;51.366;12.350;2022-10-31T05:59:09;15.50;;;9.73;;
66680;SDS011;53575;51.366;12.350;2022-10-31T06:01:34;19.80;;;9.15;;
66680;SDS011;53575;51.366;12.350;2022-10-31T06:03:59;18.88;;;9.10;;
66680;SDS011;53575;51.366;12.350;2022-10-31T06:06:25;14.73;;;8.82;;
66680;SDS011;53575;51.366;12.350;2022-10-31T06:08:50;16.40;;;9.35;;
66680;SDS011;53575;51.366;12.350;2022-10-31T06:11:15;15.15;;;8.52;;
66680;SDS011;53575;51.366;12.350;2022-10-31T06:13:41;14.40;;;8.60;;
66680;SDS011;53575;51.366;12.350;2022-10-31T06:16:06;13.65;;;8.38;;
66680;SDS011;53575;51.366;12.350;2022-10-31T06:18:31;19.40;;;8.40;;
66680;SDS011;53575;51.366;12.350;2022-10-31T06:20:57;13.20;;;9.05;;
66680;SDS011;53575;51.366;12.350;2022-10-31T06:23:22;17.58;;;8.85;;
66680;SDS011;53575;51.366;12.350;2022-10-31T06:25:48;24.17;;;9.88;;
66680;SDS011;53575;51.366;12.350;2022-10-31T06:28:14;18.98;;;9.90;;
66680;SDS011;53575;51.366;12.350;2022-10-31T06:30:40;14.48;;;9.45;;
66680;SDS011;53575;51.366;12.350;2022-10-31T06:33:05;16.17;;;9.57;;
66680;SDS011;53575;51.366;12.350;2022-10-31T06:35:31;13.73;;;9.07;;
66680;SDS011;53575;51.366;12.350;2022-10-31T06:37:57;16.10;;;9.52;;
66680;SDS011;53575;51.366;12.350;2022-10-31T06:40:22;16.25;;;9.65;;
66680;SDS011;53575;51.366;12.350;2022-10-31T06:42:55;21.25;;;9.68;;
66680;SDS011;53575;51.366;12.350;2022-10-31T06:45:22;15.07;;;9.40;;
66680;SDS011;53575;51.366;12.350;2022-10-31T06:47:51;19.23;;;9.88;;
66680;SDS011;53575;51.366;12.350;2022-10-31T06:50:20;17.17;;;9.40;;
66680;SDS011;53575;51.366;12.350;2022-10-31T06:52:50;21.80;;;10.02;;
66680;SDS011;53575;51.366;12.350;2022-10-31T06:55:20;16.13;;;9.50;;
66680;SDS011;53575;51.366;12.350;2022-10-31T06:57:57;20.70;;;9.38;;
66680;SDS011;53575;51.366;12.350;2022-10-31T07:00:24;16.00;;;9.18;;
66680;SDS011;53575;51.366;12.350;2022-10-31T07:02:55;15.10;;;8.80;;
66680;SDS011;53575;51.366;12.350;2022-10-31T07:05:27;13.98;;;7.88;;
66680;SDS011;53575;51.366;12.350;2022-10-31T07:07:54;14.75;;;9.13;;
66680;SDS011;53575;51.366;12.350;2022-10-31T07:10:21;17.45;;;9.73;;
66680;SDS011;53575;51.366;12.350;2022-10-31T07:12:48;15.88;;;9.15;;
66680;SDS011;53575;51.366;12.350;2022-10-31T07:15:13;16.85;;;8.20;;
66680;SDS011;53575;51.366;12.350;2022-10-31T07:17:39;12.60;;;7.97;;
66680;SDS011;53575;51.366;12.350;2022-10-31T07:20:04;14.98;;;8.65;;
66680;SDS011;53575;51.366;12.350;2022-10-31T07:22:36;15.90;;;8.38;;
66680;SDS011;53575;51.366;12.350;2022-10-31T07:25:02;13.70;;;8.27;;
66680;SDS011;53575;51.366;12.350;2022-10-31T07:27:28;18.45;;;8.00;;
66680;SDS011;53575;51.366;12.350;2022-10-31T07:29:53;18.08;;;8.50;;
66680;SDS011;53575;51.366;12.350;2022-10-31T07:32:18;14.45;;;8.90;;
66680;SDS011;53575;51.366;12.350;2022-10-31T07:34:44;10.88;;;7.35;;
66680;SDS011;53575;51.366;12.350;2022-10-31T07:37:09;12.68;;;8.63;;
66680;SDS011;53575;51.366;12.350;2022-10-31T07:39:35;13.55;;;9.02;;
66680;SDS011;53575;51.366;12.350;2022-10-31T07:42:01;16.13;;;8.73;;
66680;SDS011;53575;51.366;12.350;2022-10-31T07:44:26;12.57;;;7.75;;
66680;SDS011;53575;51.366;12.350;2022-10-31T07:46:51;14.50;;;8.18;;
66680;SDS011;53575;51.366;12.350;2022-10-31T07:49:17;12.65;;;8.73;;
66680;SDS011;53575;51.366;12.350;2022-10-31T07:51:42;15.52;;;7.78;;
66680;SDS011;53575;51.366;12.350;2022-10-31T07:54:07;14.15;;;8.73;;
66680;SDS011;53575;51.366;12.350;2022-10-31T07:56:33;11.27;;;7.38;;
66680;SDS011;53575;51.366;12.350;2022-10-31T07:58:58;13.38;;;7.72;;
66680;SDS011;53575;51.366;12.350;2022-10-31T08:01:23;12.68;;;7.40;;
66680;SDS011;53575;51.366;12.350;2022-10-31T08:03:49;16.05;;;8.95;;
66680;SDS011;53575;51.366;12.350;2022-10-31T08:06:14;15.27;;;7.95;;
66680;SDS011;53575;51.366;12.350;2022-10-31T08:08:39;12.55;;;7.65;;
66680;SDS011;53575;51.366;12.350;2022-10-31T08:11:05;20.13;;;9.30;;
66680;SDS011;53575;51.366;12.350;2022-10-31T08:13:30;15.63;;;8.45;;
66680;SDS011;53575;51.366;12.350;2022-10-31T08:15:57;15.10;;;8.40;;
66680;SDS011;53575;51.366;12.350;2022-10-31T08:18:28;14.38;;;8.10;;
66680;SDS011;53575;51.366;12.350;2022-10-31T08:20:54;16.60;;;8.00;;
66680;SDS011;53575;51.366;12.350;2022-10-31T08:23:19;11.75;;;8.23;;
66680;SDS011;53575;51.366;12.350;2022-10-31T08:25:45;13.65;;;8.18;;
66680;SDS011;53575;51.366;12.350;2022-10-31T08:28:12;15.88;;;8.65;;
66680;SDS011;53575;51.366;12.350;2022-10-31T08:30:39;15.45;;;8.80;;
66680;SDS011;53575;51.366;12.350;2022-10-31T08:33:12;13.73;;;8.90;;
66680;SDS011;53575;51.366;12.350;2022-10-31T08:35:42;12.15;;;7.72;;
66680;SDS011;53575;51.366;12.350;2022-10-31T08:38:09;16.08;;;8.60;;
66680;SDS011;53575;51.366;12.350;2022-10-31T08:40:35;15.45;;;9.73;;
66680;SDS011;53575;51.366;12.350;2022-10-31T08:43:06;15.48;;;8.02;;
66680;SDS011;53575;51.366;12.350;2022-10-31T08:45:38;12.98;;;8.05;;
66680;SDS011;53575;51.366;12.350;2022-10-31T08:48:05;11.98;;;7.35;;
66680;SDS011;53575;51.366;12.350;2022-10-31T08:50:35;15.35;;;8.05;;
66680;SDS011;53575;51.366;12.350;2022-10-31T08:53:01;18.23;;;8.52;;
66680;SDS011;53575;51.366;12.350;2022-10-31T08:55:27;17.88;;;9.30;;
66680;SDS011;53575;51.366;12.350;2022-10-31T08:57:56;18.73;;;8.43;;
66680;SDS011;53575;51.366;12.350;2022-10-31T09:00:22;15.60;;;9.07;;
66680;SDS011;53575;51.366;12.350;2022-10-31T09:02:53;14.75;;;8.50;;
66680;SDS011;53575;51.366;12.350;2022-10-31T09:05:20;16.83;;;8.93;;
66680;SDS011;53575;51.366;12.350;2022-10-31T09:07:45;18.73;;;9.45;;
66680;SDS011;53575;51.366;12.350;2022-10-31T09:10:10;23.17;;;15.18;;
66680;SDS011;53575;51.366;12.350;2022-10-31T09:12:36;14.32;;;9.35;;
66680;SDS011;53575;51.366;12.350;2022-10-31T09:15:01;16.20;;;10.60;;
66680;SDS011;53575;51.366;12.350;2022-10-31T09:17:27;14.93;;;8.90;;
66680;SDS011;53575;51.366;12.350;2022-10-31T09:19:54;20.48;;;10.43;;
66680;SDS011;53575;51.366;12.350;2022-10-31T09:22:19;21.25;;;10.57;;
66680;SDS011;53575;51.366;12.350;2022-10-31T09:24:44;23.90;;;13.20;;
66680;SDS011;53575;51.366;12.350;2022-10-31T09:27:10;166.27;;;67.78;;
66680;SDS011;53575;51.366;12.350;2022-10-31T09:29:35;144.20;;;59.85;;
66680;SDS011;53575;51.366;12.350;2022-10-31T09:32:00;27.98;;;12.98;;
66680;SDS011;53575;51.366;12.350;2022-10-31T09:34:26;23.38;;;12.60;;
66680;SDS011;53575;51.366;12.350;2022-10-31T09:36:52;38.90;;;19.25;;
66680;SDS011;53575;51.366;12.350;2022-10-31T09:39:18;35.30;;;17.33;;
66680;SDS011;53575;51.366;12.350;2022-10-31T09:47:49;45.88;;;24.38;;
66680;SDS011;53575;51.366;12.350;2022-10-31T09:50:24;58.80;;;26.90;;
66680;SDS011;53575;51.366;12.350;2022-10-31T09:52:57;49.10;;;24.15;;
66680;SDS011;53575;51.366;12.350;2022-10-31T09:55:30;54.67;;;26.23;;
66680;SDS011;53575;51.366;12.350;2022-10-31T09:58:01;55.47;;;25.52;;
66680;SDS011;53575;51.366;12.350;2022-10-31T10:00:27;58.40;;;26.17;;
66680;SDS011;53575;51.366;12.350;2022-10-31T10:03:04;53.25;;;25.33;;
66680;SDS011;53575;51.366;12.350;2022-10-31T10:05:43;58.70;;;27.60;;
66680;SDS011;53575;51.366;12.350;2022-10-31T10:08:19;54.25;;;25.30;;
66680;SDS011;53575;51.366;12.350;2022-10-31T10:19:05;52.53;;;26.05;;
66680;SDS011;53575;51.366;12.350;2022-10-31T10:24:17;48.20;;;25.38;;
66680;SDS011;53575;51.366;12.350;2022-10-31T10:26:54;58.42;;;26.45;;
66680;SDS011;53575;51.366;12.350;2022-10-31T10:32:19;50.08;;;25.17;;
66680;SDS011;53575;51.366;12.350;2022-10-31T10:34:50;54.28;;;24.70;;
66680;SDS011;53575;51.366;12.350;2022-10-31T10:39:53;52.08;;;26.63;;
66680;SDS011;53575;51.366;12.350;2022-10-31T10:42:24;52.40;;;24.95;;
66680;SDS011;53575;51.366;12.350;2022-10-31T10:45:15;50.35;;;24.92;;
66680;SDS011;53575;51.366;12.350;2022-10-31T10:50:56;51.15;;;25.10;;
66680;SDS011;53575;51.366;12.350;2022-10-31T10:56:35;46.65;;;23.42;;
66680;SDS011;53575;51.366;12.350;2022-10-31T10:59:01;46.58;;;23.88;;
66680;SDS011;53575;51.366;12.350;2022-10-31T11:01:28;48.03;;;25.85;;
66680;SDS011;53575;51.366;12.350;2022-10-31T11:03:54;49.15;;;24.40;;
66680;SDS011;53575;51.366;12.350;2022-10-31T11:06:21;46.05;;;23.63;;
66680;SDS011;53575;51.366;12.350;2022-10-31T11:08:50;52.13;;;25.02;;
66680;SDS011;53575;51.366;12.350;2022-10-31T11:13:42;52.05;;;25.42;;
66680;SDS011;53575;51.366;12.350;2022-10-31T11:16:10;53.05;;;25.70;;
66680;SDS011;53575;51.366;12.350;2022-10-31T11:18:42;62.55;;;25.40;;
66680;SDS011;53575;51.366;12.350;2022-10-31T11:21:21;50.45;;;26.20;;
66680;SDS011;53575;51.366;12.350;2022-10-31T11:24:12;51.72;;;24.92;;
66680;SDS011;53575;51.366;12.350;2022-10-31T11:26:42;53.92;;;28.13;;
66680;SDS011;53575;51.366;12.350;2022-10-31T11:29:12;44.90;;;25.58;;
66680;SDS011;53575;51.366;12.350;2022-10-31T11:31:40;47.80;;;24.98;;
66680;SDS011;53575;51.366;12.350;2022-10-31T11:34:26;51.80;;;27.85;;
66680;SDS011;53575;51.366;12.350;2022-10-31T11:36:56;52.78;;;26.45;;
66680;SDS011;53575;51.366;12.350;2022-10-31T11:39:26;49.92;;;24.25;;
66680;SDS011;53575;51.366;12.350;2022-10-31T11:41:52;48.88;;;26.40;;
66680;SDS011;53575;51.366;12.350;2022-10-31T11:44:20;41.97;;;25.10;;
66680;SDS011;53575;51.366;12.350;2022-10-31T11:46:55;51.72;;;25.80;;
66680;SDS011;53575;51.366;12.350;2022-10-31T11:51:58;54.67;;;23.88;;
66680;SDS011;53575;51.366;12.350;2022-10-31T11:54:28;43.70;;;23.27;;
66680;SDS011;53575;51.366;12.350;2022-10-31T11:56:56;49.63;;;25.67;;
66680;SDS011;53575;51.366;12.350;2022-10-31T12:01:52;59.35;;;31.50;;
66680;SDS011;53575;51.366;12.350;2022-10-31T12:04:18;47.58;;;25.10;;
66680;SDS011;53575;51.366;12.350;2022-10-31T12:06:54;51.03;;;25.23;;
66680;SDS011;53575;51.366;12.350;2022-10-31T12:14:49;45.55;;;24.70;;
66680;SDS011;53575;51.366;12.350;2022-10-31T12:26:22;48.95;;;25.05;;
66680;SDS011;53575;51.366;12.350;2022-10-31T12:43:35;40.13;;;21.80;;
66680;SDS011;53575;51.366;12.350;2022-10-31T12:46:02;42.45;;;22.30;;
66680;SDS011;53575;51.366;12.350;2022-10-31T12:48:34;45.40;;;23.23;;
66680;SDS011;53575;51.366;12.350;2022-10-31T12:51:15;51.33;;;24.92;;
66680;SDS011;53575;51.366;12.350;2022-10-31T12:53:59;41.53;;;22.75;;
66680;SDS011;53575;51.366;12.350;2022-10-31T13:01:58;44.58;;;24.02;;
66680;SDS011;53575;51.366;12.350;2022-10-31T13:04:42;43.83;;;22.77;;
66680;SDS011;53575;51.366;12.350;2022-10-31T13:07:24;43.00;;;23.13;;
66680;SDS011;53575;51.366;12.350;2022-10-31T13:10:02;41.42;;;22.92;;
66680;SDS011;53575;51.366;12.350;2022-10-31T13:12:34;41.80;;;24.58;;
66680;SDS011;53575;51.366;12.350;2022-10-31T13:15:03;44.35;;;23.52;;
66680;SDS011;53575;51.366;12.350;2022-10-31T13:17:38;48.17;;;25.90;;
66680;SDS011;53575;51.366;12.350;2022-10-31T13:22:56;48.42;;;24.00;;
66680;SDS011;53575;51.366;12.350;2022-10-31T13:25:37;46.78;;;24.48;;
66680;SDS011;53575;51.366;12.350;2022-10-31T13:31:00;47.33;;;24.15;;
66680;SDS011;53575;51.366;12.350;2022-10-31T13:38:49;41.42;;;24.10;;
66680;SDS011;53575;51.366;12.350;2022-10-31T13:44:28;50.10;;;24.45;;
66680;SDS011;53575;51.366;12.350;2022-10-31T13:46:58;44.05;;;24.63;;
66680;SDS011;53575;51.366;12.350;2022-10-31T13:54:50;48.80;;;24.10;;
66680;SDS011;53575;51.366;12.350;2022-10-31T14:00:23;49.47;;;25.13;;
66680;SDS011;53575;51.366;12.350;2022-10-31T14:02:54;43.45;;;23.67;;
66680;SDS011;53575;51.366;12.350;2022-10-31T14:07:47;43.17;;;25.15;;
66680;SDS011;53575;51.366;12.350;2022-10-31T14:10:47;49.97;;;25.88;;
66680;SDS011;53575;51.366;12.350;2022-10-31T14:13:23;50.00;;;24.10;;
66680;SDS011;53575;51.366;12.350;2022-10-31T14:15:58;53.03;;;24.83;;
66680;SDS011;53575;51.366;12.350;2022-10-31T14:18:30;44.53;;;25.20;;
66680;SDS011;53575;51.366;12.350;2022-10-31T14:20:58;54.33;;;27.48;;
66680;SDS011;53575;51.366;12.350;2022-10-31T14:28:42;50.03;;;25.45;;
66680;SDS011;53575;51.366;12.350;2022-10-31T14:34:23;47.08;;;25.35;;
66680;SDS011;53575;51.366;12.350;2022-10-31T14:48:23;49.35;;;27.30;;
66680;SDS011;53575;51.366;12.350;2022-10-31T14:51:02;54.35;;;26.13;;
66680;SDS011;53575;51.366;12.350;2022-10-31T14:53:56;55.13;;;28.52;;
66680;SDS011;53575;51.366;12.350;2022-10-31T14:56:29;48.80;;;26.85;;
66680;SDS011;53575;51.366;12.350;2022-10-31T14:58:58;57.22;;;28.80;;
66680;SDS011;53575;51.366;12.350;2022-10-31T15:01:30;57.25;;;27.60;;
66680;SDS011;53575;51.366;12.350;2022-10-31T15:04:04;53.33;;;27.33;;
66680;SDS011;53575;51.366;12.350;2022-10-31T15:06:39;48.17;;;27.17;;
66680;SDS011;53575;51.366;12.350;2022-10-31T15:09:20;56.53;;;27.42;;
66680;SDS011;53575;51.366;12.350;2022-10-31T15:11:53;51.83;;;27.48;;
66680;SDS011;53575;51.366;12.350;2022-10-31T15:14:28;50.40;;;26.40;;
66680;SDS011;53575;51.366;12.350;2022-10-31T15:16:56;52.35;;;28.45;;
66680;SDS011;53575;51.366;12.350;2022-10-31T15:19:23;46.13;;;26.98;;
66680;SDS011;53575;51.366;12.350;2022-10-31T15:21:52;49.70;;;28.17;;
66680;SDS011;53575;51.366;12.350;2022-10-31T15:24:19;49.70;;;26.53;;
66680;SDS011;53575;51.366;12.350;2022-10-31T15:26:47;50.05;;;27.63;;
66680;SDS011;53575;51.366;12.350;2022-10-31T15:29:15;52.83;;;27.67;;
66680;SDS011;53575;51.366;12.350;2022-10-31T15:31:52;54.60;;;28.35;;
66680;SDS011;53575;51.366;12.350;2022-10-31T15:37:01;51.40;;;28.25;;
66680;SDS011;53575;51.366;12.350;2022-10-31T15:39:27;58.80;;;28.92;;
66680;SDS011;53575;51.366;12.350;2022-10-31T15:41:53;66.93;;;33.03;;
66680;SDS011;53575;51.366;12.350;2022-10-31T15:44:22;57.15;;;29.67;;
66680;SDS011;53575;51.366;12.350;2022-10-31T15:46:54;54.78;;;30.27;;
66680;SDS011;53575;51.366;12.350;2022-10-31T15:49:38;62.13;;;32.53;;
66680;SDS011;53575;51.366;12.350;2022-10-31T15:52:10;62.55;;;32.10;;
66680;SDS011;53575;51.366;12.350;2022-10-31T15:54:40;64.97;;;31.73;;
66680;SDS011;53575;51.366;12.350;2022-10-31T15:57:12;59.13;;;31.60;;
66680;SDS011;53575;51.366;12.350;2022-10-31T15:59:37;59.40;;;31.75;;
66680;SDS011;53575;51.366;12.350;2022-10-31T16:02:09;61.97;;;33.08;;
66680;SDS011;53575;51.366;12.350;2022-10-31T16:04:36;73.72;;;32.80;;
66680;SDS011;53575;51.366;12.350;2022-10-31T16:07:03;61.28;;;32.17;;
66680;SDS011;53575;51.366;12.350;2022-10-31T16:09:48;65.85;;;31.55;;
66680;SDS011;53575;51.366;12.350;2022-10-31T16:12:29;63.67;;;32.15;;
66680;SDS011;53575;51.366;12.350;2022-10-31T16:15:03;62.53;;;33.00;;
66680;SDS011;53575;51.366;12.350;2022-10-31T16:17:29;64.43;;;31.75;;
66680;SDS011;53575;51.366;12.350;2022-10-31T16:19:57;65.95;;;31.75;;
66680;SDS011;53575;51.366;12.350;2022-10-31T16:22:29;59.95;;;31.50;;
66680;SDS011;53575;51.366;12.350;2022-10-31T16:25:03;58.85;;;31.77;;
66680;SDS011;53575;51.366;12.350;2022-10-31T16:27:31;64.13;;;33.22;;
66680;SDS011;53575;51.366;12.350;2022-10-31T16:29:59;62.13;;;31.55;;
66680;SDS011;53575;51.366;12.350;2022-10-31T16:35:26;68.43;;;33.10;;
66680;SDS011;53575;51.366;12.350;2022-10-31T16:37:57;63.63;;;33.17;;
66680;SDS011;53575;51.366;12.350;2022-10-31T16:40:22;60.13;;;32.08;;
66680;SDS011;53575;51.366;12.350;2022-10-31T16:42:48;69.88;;;33.22;;
66680;SDS011;53575;51.366;12.350;2022-10-31T16:45:18;65.63;;;33.97;;
66680;SDS011;53575;51.366;12.350;2022-10-31T16:47:46;64.05;;;31.35;;
66680;SDS011;53575;51.366;12.350;2022-10-31T16:50:12;63.10;;;34.50;;
66680;SDS011;53575;51.366;12.350;2022-10-31T16:52:43;72.32;;;36.25;;
66680;SDS011;53575;51.366;12.350;2022-10-31T16:55:13;78.72;;;39.20;;
66680;SDS011;53575;51.366;12.350;2022-10-31T16:57:40;71.47;;;37.40;;
66680;SDS011;53575;51.366;12.350;2022-10-31T17:00:12;67.25;;;37.00;;